Time;durP1;ratioP1;P1;durP2;ratioP2;P2;SDS_P1;SDS_P2;PMS_P1;PMS_P2;Temp;Humidity;BMP_temperature;BMP_pressure;BME280_temperature;BME280_humidity;BME280_pressure;Samples;Min_cycle;Max_cycle;Signal;HPM_P1;HPM_P2
2022/02/24 00:01:25;;;;;;;8.43;1.75;;;;;;;;;;5043416;28;20225;-66
2022/02/24 00:03:50;;;;;;;5.60;1.40;;;;;;;;;;5047721;28;20170;-66
2022/02/24 00:06:18;;;;;;;10.77;2.08;;;;;;;;;;5046780;28;20197;-66
2022/02/24 00:08:43;;;;;;;5.57;1.83;;;;;;;;;;5048455;28;20245;-66
2022/02/24 00:11:09;;;;;;;7.55;1.65;;;;;;;;;;5052066;28;20260;-66
2022/02/24 00:13:34;;;;;;;8.40;2.10;;;;;;;;;;5045147;28;20378;-66
2022/02/24 00:16:00;;;;;;;7.63;1.90;;;;;;;;;;5052812;28;20197;-67
2022/02/24 00:18:25;;;;;;;8.00;1.83;;;;;;;;;;5049900;28;20196;-66
2022/02/24 00:20:50;;;;;;;6.97;1.83;;;;;;;;;;5046083;28;20185;-65
2022/02/24 00:23:16;;;;;;;6.88;1.77;;;;;;;;;;5044636;28;20703;-66
2022/02/24 00:25:41;;;;;;;14.88;2.28;;;;;;;;;;5046800;28;20230;-66
2022/02/24 00:28:06;;;;;;;7.28;2.00;;;;;;;;;;5044169;28;20204;-66
2022/02/24 00:30:32;;;;;;;10.48;2.33;;;;;;;;;;5044416;28;20327;-66
2022/02/24 00:32:57;;;;;;;8.73;1.90;;;;;;;;;;5040184;28;20569;-66
2022/02/24 00:35:22;;;;;;;5.63;1.70;;;;;;;;;;5044256;28;20185;-66
2022/02/24 00:37:48;;;;;;;9.40;1.97;;;;;;;;;;5040213;28;20193;-66
2022/02/24 00:40:13;;;;;;;6.72;2.00;;;;;;;;;;5044836;28;20774;-66
2022/02/24 00:42:39;;;;;;;8.40;1.75;;;;;;;;;;5045321;28;20668;-66
2022/02/24 00:45:05;;;;;;;6.80;2.10;;;;;;;;;;5045867;28;20190;-66
2022/02/24 00:47:30;;;;;;;15.10;2.30;;;;;;;;;;5043255;28;20277;-66
2022/02/24 00:49:56;;;;;;;6.88;2.10;;;;;;;;;;5054180;28;20193;-66
2022/02/24 00:52:21;;;;;;;12.73;2.43;;;;;;;;;;5042404;28;20218;-66
2022/02/24 00:54:48;;;;;;;8.38;2.03;;;;;;;;;;5047999;28;20178;-66
2022/02/24 00:57:13;;;;;;;12.77;2.10;;;;;;;;;;5041808;28;20201;-66
2022/02/24 00:59:39;;;;;;;10.70;2.58;;;;;;;;;;5041070;28;20185;-66
2022/02/24 01:02:04;;;;;;;8.27;2.30;;;;;;;;;;5041481;28;20185;-66
2022/02/24 01:04:30;;;;;;;12.73;2.13;;;;;;;;;;5047494;28;20551;-66
2022/02/24 01:06:55;;;;;;;12.23;2.08;;;;;;;;;;5041660;28;20185;-66
2022/02/24 01:09:20;;;;;;;11.38;2.20;;;;;;;;;;5044958;28;20216;-66
2022/02/24 01:11:46;;;;;;;14.50;2.03;;;;;;;;;;5042617;28;20732;-66
2022/02/24 01:14:11;;;;;;;9.85;2.10;;;;;;;;;;5044816;28;20185;-66
2022/02/24 01:16:37;;;;;;;6.95;1.88;;;;;;;;;;5043909;28;20276;-66
2022/02/24 01:19:02;;;;;;;11.67;2.27;;;;;;;;;;5046942;28;20185;-66
2022/02/24 01:21:28;;;;;;;6.90;2.10;;;;;;;;;;5040286;28;20193;-66
2022/02/24 01:23:53;;;;;;;9.20;2.13;;;;;;;;;;5043931;28;20645;-66
2022/02/24 01:26:18;;;;;;;21.40;2.43;;;;;;;;;;5042421;28;20534;-66
2022/02/24 01:28:44;;;;;;;8.83;1.63;;;;;;;;;;5045429;28;20251;-65
2022/02/24 01:31:09;;;;;;;9.27;1.93;;;;;;;;;;5036599;28;20209;-65
2022/02/24 01:33:34;;;;;;;8.10;2.20;;;;;;;;;;5043482;28;20401;-66
2022/02/24 01:36:00;;;;;;;10.03;2.00;;;;;;;;;;5041889;28;20638;-66
2022/02/24 01:38:25;;;;;;;12.40;2.80;;;;;;;;;;5046371;28;20191;-66
2022/02/24 01:40:51;;;;;;;9.37;2.10;;;;;;;;;;5041921;28;20185;-66
2022/02/24 01:43:16;;;;;;;8.77;2.10;;;;;;;;;;5041872;28;20706;-66
2022/02/24 01:45:42;;;;;;;5.47;1.90;;;;;;;;;;5046276;28;20193;-66
2022/02/24 01:48:07;;;;;;;9.47;2.40;;;;;;;;;;5037651;28;20170;-66
2022/02/24 01:50:32;;;;;;;10.30;2.53;;;;;;;;;;5039988;28;20208;-66
2022/02/24 01:52:58;;;;;;;10.03;2.53;;;;;;;;;;5037833;28;20263;-66
2022/02/24 01:55:23;;;;;;;14.03;2.83;;;;;;;;;;5044622;28;20572;-66
2022/02/24 01:57:49;;;;;;;12.63;2.80;;;;;;;;;;5041174;28;20617;-66
2022/02/24 02:00:15;;;;;;;10.67;2.50;;;;;;;;;;5042146;28;20713;-66
2022/02/24 02:02:40;;;;;;;15.37;2.20;;;;;;;;;;5041741;28;20185;-66
2022/02/24 02:05:07;;;;;;;10.10;2.77;;;;;;;;;;5045512;28;20529;-66
2022/02/24 02:07:33;;;;;;;11.13;2.40;;;;;;;;;;5041355;28;20181;-66
2022/02/24 02:09:59;;;;;;;12.23;2.10;;;;;;;;;;5043449;28;20194;-66
2022/02/24 02:12:24;;;;;;;11.43;2.27;;;;;;;;;;5039805;28;20308;-66
2022/02/24 02:14:50;;;;;;;9.80;2.40;;;;;;;;;;5034385;28;20185;-66
2022/02/24 02:17:15;;;;;;;11.00;2.10;;;;;;;;;;5041369;28;20194;-66
2022/02/24 02:19:41;;;;;;;7.70;2.63;;;;;;;;;;5038670;28;20185;-66
2022/02/24 02:22:06;;;;;;;9.37;2.80;;;;;;;;;;5041104;28;20610;-66
2022/02/24 02:24:31;;;;;;;10.97;3.00;;;;;;;;;;5033897;28;20188;-66
2022/02/24 02:26:57;;;;;;;8.53;2.47;;;;;;;;;;5041826;28;20196;-67
2022/02/24 02:29:22;;;;;;;10.80;2.67;;;;;;;;;;5040071;28;20181;-67
2022/02/24 02:31:48;;;;;;;8.77;3.17;;;;;;;;;;5040539;28;20205;-67
2022/02/24 02:34:16;;;;;;;12.27;3.20;;;;;;;;;;5041451;28;20246;-67
2022/02/24 02:36:42;;;;;;;12.95;3.40;;;;;;;;;;5041330;28;20268;-67
2022/02/24 02:39:10;;;;;;;10.90;3.60;;;;;;;;;;5042811;28;20549;-67
2022/02/24 02:41:37;;;;;;;10.63;3.07;;;;;;;;;;5041370;28;20532;-67
2022/02/24 02:44:02;;;;;;;12.50;2.70;;;;;;;;;;5034856;28;20177;-66
2022/02/24 02:46:28;;;;;;;11.57;2.90;;;;;;;;;;5042533;28;20178;-66
2022/02/24 02:48:53;;;;;;;13.23;2.47;;;;;;;;;;5042109;28;20275;-67
2022/02/24 02:51:19;;;;;;;11.88;3.10;;;;;;;;;;5039690;28;20202;-67
2022/02/24 02:53:44;;;;;;;11.52;2.83;;;;;;;;;;5039252;28;20308;-67
2022/02/24 02:56:10;;;;;;;9.75;2.80;;;;;;;;;;5037917;28;20632;-67
2022/02/24 02:58:36;;;;;;;12.52;2.97;;;;;;;;;;5040288;28;20272;-65
2022/02/24 03:01:01;;;;;;;10.20;3.25;;;;;;;;;;5040053;28;20287;-65
2022/02/24 03:03:26;;;;;;;7.80;3.05;;;;;;;;;;5039912;28;20182;-65
2022/02/24 03:05:52;;;;;;;10.50;3.15;;;;;;;;;;5041215;28;20181;-66
2022/02/24 03:08:18;;;;;;;10.15;3.25;;;;;;;;;;5039422;28;20185;-66
2022/02/24 03:10:44;;;;;;;10.70;3.20;;;;;;;;;;5042560;28;20181;-66
2022/02/24 03:13:09;;;;;;;12.02;3.40;;;;;;;;;;5037471;28;20229;-66
2022/02/24 03:15:35;;;;;;;8.20;2.80;;;;;;;;;;5038796;28;20385;-66
2022/02/24 03:18:00;;;;;;;9.98;2.95;;;;;;;;;;5041708;28;20211;-65
2022/02/24 03:20:31;;;;;;;13.90;3.23;;;;;;;;;;5046438;28;20329;-65
2022/02/24 03:22:57;;;;;;;11.85;3.03;;;;;;;;;;5045788;28;20687;-65
2022/02/24 03:25:22;;;;;;;9.57;2.90;;;;;;;;;;5042405;28;20190;-65
2022/02/24 03:27:48;;;;;;;14.07;3.40;;;;;;;;;;5043440;28;20174;-65
2022/02/24 03:30:13;;;;;;;10.27;2.70;;;;;;;;;;5043535;28;20210;-66
2022/02/24 03:32:39;;;;;;;9.60;2.83;;;;;;;;;;5045535;28;20734;-66
2022/02/24 03:35:05;;;;;;;10.38;2.50;;;;;;;;;;5048927;28;20302;-66
2022/02/24 03:37:30;;;;;;;6.60;2.60;;;;;;;;;;5046520;28;20178;-66
2022/02/24 03:39:56;;;;;;;12.93;3.00;;;;;;;;;;5047336;28;20594;-66
2022/02/24 03:42:22;;;;;;;9.80;3.28;;;;;;;;;;5044433;28;20181;-66
2022/02/24 03:44:47;;;;;;;8.25;3.25;;;;;;;;;;5046624;28;20254;-66
2022/02/24 03:47:13;;;;;;;9.33;3.00;;;;;;;;;;5042423;28;20198;-66
2022/02/24 03:49:38;;;;;;;11.93;3.77;;;;;;;;;;5049014;28;20194;-66
2022/02/24 03:52:03;;;;;;;10.57;3.70;;;;;;;;;;5047272;28;20177;-66
2022/02/24 03:54:29;;;;;;;11.70;3.50;;;;;;;;;;5046637;28;20255;-66
2022/02/24 03:56:54;;;;;;;13.85;3.78;;;;;;;;;;5041902;28;20257;-66
2022/02/24 03:59:20;;;;;;;10.07;3.37;;;;;;;;;;5039352;28;20280;-66
2022/02/24 04:01:45;;;;;;;10.30;3.77;;;;;;;;;;5044458;28;20182;-66
2022/02/24 04:04:12;;;;;;;11.17;3.70;;;;;;;;;;5042813;28;20185;-66
2022/02/24 04:06:38;;;;;;;10.93;3.50;;;;;;;;;;5045549;28;20731;-66
2022/02/24 04:09:03;;;;;;;12.73;3.37;;;;;;;;;;5044811;28;20216;-67
2022/02/24 04:11:28;;;;;;;11.50;2.87;;;;;;;;;;5046582;28;20572;-67
2022/02/24 04:13:54;;;;;;;10.80;3.63;;;;;;;;;;5044912;28;20706;-67
2022/02/24 04:16:19;;;;;;;10.20;3.00;;;;;;;;;;5046233;28;20438;-66
2022/02/24 04:18:44;;;;;;;10.37;3.10;;;;;;;;;;5044666;28;20253;-67
2022/02/24 04:21:10;;;;;;;13.30;3.08;;;;;;;;;;5040690;28;20649;-66
2022/02/24 04:23:35;;;;;;;12.70;2.77;;;;;;;;;;5044914;28;20661;-66
2022/02/24 04:26:00;;;;;;;12.40;3.10;;;;;;;;;;5048335;28;20193;-66
2022/02/24 04:28:26;;;;;;;11.80;3.00;;;;;;;;;;5043631;28;20182;-66
2022/02/24 04:30:51;;;;;;;9.43;2.70;;;;;;;;;;5044594;28;20209;-66
2022/02/24 04:33:16;;;;;;;10.30;2.47;;;;;;;;;;5050128;28;20217;-66
2022/02/24 04:35:42;;;;;;;10.00;2.70;;;;;;;;;;5044363;28;20273;-66
2022/02/24 04:38:07;;;;;;;8.00;1.90;;;;;;;;;;5050478;28;20308;-66
2022/02/24 04:40:33;;;;;;;11.75;3.05;;;;;;;;;;5044766;28;20177;-66
2022/02/24 04:42:58;;;;;;;10.65;2.55;;;;;;;;;;5046002;28;20211;-66
2022/02/24 04:45:23;;;;;;;15.63;3.00;;;;;;;;;;5044395;28;20288;-66
2022/02/24 04:47:49;;;;;;;9.18;2.30;;;;;;;;;;5042597;28;20616;-66
2022/02/24 04:50:14;;;;;;;12.00;2.45;;;;;;;;;;5043639;28;20177;-67
2022/02/24 04:52:41;;;;;;;8.98;2.97;;;;;;;;;;5043843;28;20221;-67
2022/02/24 04:55:07;;;;;;;8.30;2.70;;;;;;;;;;5041854;28;20193;-66
2022/02/24 04:57:32;;;;;;;11.97;2.43;;;;;;;;;;5040760;28;20572;-67
2022/02/24 04:59:58;;;;;;;17.43;3.03;;;;;;;;;;5042415;28;20182;-67
2022/02/24 05:02:23;;;;;;;10.27;2.42;;;;;;;;;;5039131;28;20691;-66
2022/02/24 05:04:49;;;;;;;14.30;2.73;;;;;;;;;;5042477;28;20295;-66
2022/02/24 05:07:14;;;;;;;7.32;2.33;;;;;;;;;;5048445;28;20185;-66
2022/02/24 05:09:39;;;;;;;9.60;2.50;;;;;;;;;;5044486;28;20193;-66
2022/02/24 05:12:06;;;;;;;7.57;2.45;;;;;;;;;;5039610;28;20788;-66
2022/02/24 05:14:32;;;;;;;15.87;2.70;;;;;;;;;;5041341;28;20239;-66
2022/02/24 05:16:57;;;;;;;11.13;2.38;;;;;;;;;;5044042;28;20636;-65
2022/02/24 05:19:23;;;;;;;11.85;2.50;;;;;;;;;;5037262;28;20189;-66
2022/02/24 05:21:48;;;;;;;8.40;2.27;;;;;;;;;;5037009;28;20204;-66
2022/02/24 05:24:13;;;;;;;15.67;2.90;;;;;;;;;;5048391;28;20176;-66
2022/02/24 05:26:39;;;;;;;12.83;2.70;;;;;;;;;;5041942;28;20296;-66
2022/02/24 05:29:04;;;;;;;8.67;2.53;;;;;;;;;;5046249;28;20189;-66
2022/02/24 05:31:29;;;;;;;10.50;3.07;;;;;;;;;;5039834;28;20209;-66
2022/02/24 05:33:55;;;;;;;15.00;3.67;;;;;;;;;;5049400;28;20576;-65
2022/02/24 05:36:20;;;;;;;12.40;2.50;;;;;;;;;;5040789;28;20667;-65
2022/02/24 05:38:45;;;;;;;9.27;2.67;;;;;;;;;;5044172;28;20193;-66
2022/02/24 05:41:11;;;;;;;8.20;2.63;;;;;;;;;;5044121;28;20489;-67
2022/02/24 05:43:36;;;;;;;13.40;3.10;;;;;;;;;;5045678;28;20383;-66
2022/02/24 05:46:01;;;;;;;11.70;2.77;;;;;;;;;;5040656;28;20513;-66
2022/02/24 05:48:27;;;;;;;13.70;2.93;;;;;;;;;;5045243;28;20189;-66
2022/02/24 05:50:52;;;;;;;9.03;2.50;;;;;;;;;;5042689;28;20327;-66
2022/02/24 05:53:18;;;;;;;12.83;2.73;;;;;;;;;;5042746;28;20209;-68
2022/02/24 05:55:43;;;;;;;15.40;3.30;;;;;;;;;;5041302;28;20185;-66
2022/02/24 05:58:09;;;;;;;13.00;3.20;;;;;;;;;;5046704;28;20564;-66
2022/02/24 06:00:34;;;;;;;14.57;3.70;;;;;;;;;;5038729;28;20311;-66
2022/02/24 06:02:59;;;;;;;13.43;3.33;;;;;;;;;;5041173;28;20311;-66
2022/02/24 06:05:25;;;;;;;9.37;2.93;;;;;;;;;;5038995;28;20348;-66
2022/02/24 06:07:50;;;;;;;11.40;3.00;;;;;;;;;;5042978;28;20194;-67
2022/02/24 06:10:16;;;;;;;13.43;2.92;;;;;;;;;;5044317;28;20213;-66
2022/02/24 06:12:42;;;;;;;8.23;2.90;;;;;;;;;;5041138;28;20257;-66
2022/02/24 06:15:08;;;;;;;15.67;3.53;;;;;;;;;;5035888;28;20209;-67
2022/02/24 06:17:35;;;;;;;10.63;2.93;;;;;;;;;;5044850;28;20201;-67
2022/02/24 06:20:05;;;;;;;12.15;2.70;;;;;;;;;;5039148;28;20193;-65
2022/02/24 06:22:30;;;;;;;14.87;3.37;;;;;;;;;;5039379;28;20556;-66
2022/02/24 06:24:56;;;;;;;13.43;2.97;;;;;;;;;;5044161;28;20197;-66
2022/02/24 06:27:21;;;;;;;11.52;3.45;;;;;;;;;;5043200;28;20266;-66
2022/02/24 06:29:47;;;;;;;12.93;2.87;;;;;;;;;;5050263;28;20299;-66
2022/02/24 06:32:16;;;;;;;17.07;3.33;;;;;;;;;;5041014;28;20318;-66
2022/02/24 06:34:42;;;;;;;12.63;3.13;;;;;;;;;;5046970;28;20193;-67
2022/02/24 06:37:07;;;;;;;9.95;2.72;;;;;;;;;;5040374;28;20684;-66
2022/02/24 06:39:33;;;;;;;16.33;3.57;;;;;;;;;;5043291;28;20276;-66
2022/02/24 06:41:59;;;;;;;10.93;2.60;;;;;;;;;;5040312;28;20233;-66
2022/02/24 06:44:24;;;;;;;10.93;2.57;;;;;;;;;;5045374;28;20186;-66
2022/02/24 06:46:50;;;;;;;15.50;3.33;;;;;;;;;;5036433;28;20239;-67
2022/02/24 06:49:15;;;;;;;16.13;3.10;;;;;;;;;;5041817;28;20842;-67
2022/02/24 06:51:40;;;;;;;14.80;2.28;;;;;;;;;;5037592;28;20730;-67
2022/02/24 06:54:06;;;;;;;7.13;2.30;;;;;;;;;;5042450;28;20567;-67
2022/02/24 06:56:31;;;;;;;13.73;3.50;;;;;;;;;;5047223;28;20247;-66
2022/02/24 06:58:57;;;;;;;11.63;3.83;;;;;;;;;;5046790;28;20232;-66
2022/02/24 07:01:22;;;;;;;15.35;2.33;;;;;;;;;;5049359;28;20181;-67
2022/02/24 07:03:47;;;;;;;8.50;2.27;;;;;;;;;;5045657;28;20269;-67
2022/02/24 07:06:13;;;;;;;11.23;2.67;;;;;;;;;;5048220;28;20204;-67
2022/02/24 07:08:39;;;;;;;13.37;2.87;;;;;;;;;;5045405;28;20789;-66
2022/02/24 07:11:05;;;;;;;11.65;2.33;;;;;;;;;;5051388;28;20268;-66
2022/02/24 07:13:30;;;;;;;9.83;2.27;;;;;;;;;;5048214;28;20381;-66
2022/02/24 07:15:56;;;;;;;11.30;2.58;;;;;;;;;;5052192;28;20197;-66
2022/02/24 07:18:21;;;;;;;11.25;2.90;;;;;;;;;;5048524;28;20926;-65
2022/02/24 07:20:47;;;;;;;9.37;2.47;;;;;;;;;;5045676;28;20190;-65
2022/02/24 07:23:13;;;;;;;7.97;2.40;;;;;;;;;;5049372;28;20188;-66
2022/02/24 07:25:39;;;;;;;11.20;3.30;;;;;;;;;;5051258;28;20186;-66
2022/02/24 07:28:04;;;;;;;12.33;2.60;;;;;;;;;;5042955;28;20197;-66
2022/02/24 07:30:30;;;;;;;10.93;2.70;;;;;;;;;;5040860;28;20209;-66
2022/02/24 07:32:55;;;;;;;8.75;2.42;;;;;;;;;;5042015;28;20213;-67
2022/02/24 07:35:20;;;;;;;12.50;2.93;;;;;;;;;;5043252;28;20204;-67
2022/02/24 07:37:46;;;;;;;12.37;2.40;;;;;;;;;;5043759;28;20200;-66
2022/02/24 07:40:11;;;;;;;9.07;2.28;;;;;;;;;;5039806;28;20671;-65
2022/02/24 07:42:37;;;;;;;14.97;2.60;;;;;;;;;;5045995;28;20717;-66
2022/02/24 07:45:04;;;;;;;13.07;2.77;;;;;;;;;;5044160;28;20276;-66
2022/02/24 07:47:29;;;;;;;14.53;2.73;;;;;;;;;;5042385;28;20247;-66
2022/02/24 07:49:55;;;;;;;13.00;3.03;;;;;;;;;;5043711;28;20700;-66
2022/02/24 07:52:22;;;;;;;12.67;2.77;;;;;;;;;;5038452;28;20213;-66
2022/02/24 07:54:47;;;;;;;11.20;2.35;;;;;;;;;;5041879;28;20193;-66
2022/02/24 07:57:13;;;;;;;8.33;2.77;;;;;;;;;;5042896;28;20225;-66
2022/02/24 07:59:38;;;;;;;8.47;2.47;;;;;;;;;;5041876;28;20705;-66
2022/02/24 08:02:03;;;;;;;10.48;2.70;;;;;;;;;;5041250;28;20197;-66
2022/02/24 08:04:29;;;;;;;18.07;3.00;;;;;;;;;;5045474;28;20181;-66
2022/02/24 08:06:54;;;;;;;9.97;2.30;;;;;;;;;;5041878;28;20254;-66
2022/02/24 08:09:19;;;;;;;7.27;2.50;;;;;;;;;;5046785;28;20196;-66
2022/02/24 08:12:38;;;;;;;11.20;2.30;;;;;;;;;;5043621;28;20288;-66
2022/02/24 08:14:35;;;;;;;9.73;2.25;;;;;;;;;;5046560;28;20202;-66
2022/02/24 08:17:00;;;;;;;7.03;2.13;;;;;;;;;;5044387;28;20188;-66
2022/02/24 08:19:25;;;;;;;7.37;2.03;;;;;;;;;;5046334;28;20185;-66
2022/02/24 08:21:51;;;;;;;10.60;2.70;;;;;;;;;;5043950;28;20326;-66
2022/02/24 08:24:16;;;;;;;8.55;1.98;;;;;;;;;;5038239;28;20973;-66
2022/02/24 08:26:41;;;;;;;9.57;2.30;;;;;;;;;;5037406;28;20248;-66
2022/02/24 08:29:07;;;;;;;10.97;2.03;;;;;;;;;;5040856;28;20686;-67
2022/02/24 08:31:32;;;;;;;12.10;2.05;;;;;;;;;;5046070;28;20216;-66
2022/02/24 08:33:57;;;;;;;14.48;2.50;;;;;;;;;;5043116;28;20277;-66
2022/02/24 08:36:23;;;;;;;9.10;2.13;;;;;;;;;;5050614;28;20256;-66
2022/02/24 08:38:48;;;;;;;9.23;2.03;;;;;;;;;;5051209;28;20191;-66
2022/02/24 08:41:13;;;;;;;9.43;2.45;;;;;;;;;;5047442;28;20189;-67
2022/02/24 08:43:38;;;;;;;11.00;2.40;;;;;;;;;;5044593;28;20200;-67
2022/02/24 08:46:04;;;;;;;6.43;2.10;;;;;;;;;;5047000;28;20273;-66
2022/02/24 08:48:30;;;;;;;9.57;1.92;;;;;;;;;;5046683;28;20656;-66
2022/02/24 08:50:56;;;;;;;8.18;1.65;;;;;;;;;;5042043;28;20204;-66
2022/02/24 08:53:21;;;;;;;8.30;2.20;;;;;;;;;;5043658;28;20205;-66
2022/02/24 08:55:46;;;;;;;7.93;1.48;;;;;;;;;;5048347;28;20181;-67
2022/02/24 08:58:12;;;;;;;7.20;1.88;;;;;;;;;;5040833;28;20253;-67
2022/02/24 09:00:42;;;;;;;11.65;2.10;;;;;;;;;;5046982;28;20551;-67
2022/02/24 09:03:07;;;;;;;7.75;1.90;;;;;;;;;;5040998;28;20814;-67
2022/02/24 09:05:33;;;;;;;5.70;1.67;;;;;;;;;;5046138;28;20213;-67
2022/02/24 09:07:58;;;;;;;6.85;1.85;;;;;;;;;;5040666;28;20192;-66
2022/02/24 09:10:24;;;;;;;9.30;2.00;;;;;;;;;;5047413;28;20300;-66
2022/02/24 09:12:49;;;;;;;6.50;1.42;;;;;;;;;;5039882;28;20222;-66
2022/02/24 09:15:15;;;;;;;6.33;1.53;;;;;;;;;;5037168;28;20326;-66
2022/02/24 09:17:40;;;;;;;6.80;1.77;;;;;;;;;;5043554;28;20181;-65
2022/02/24 09:20:06;;;;;;;6.70;1.60;;;;;;;;;;5044076;28;20583;-66
2022/02/24 09:22:31;;;;;;;7.45;1.55;;;;;;;;;;5044145;28;20686;-66
2022/02/24 09:24:57;;;;;;;7.30;1.45;;;;;;;;;;5050922;28;20220;-66
2022/02/24 09:27:24;;;;;;;7.85;1.85;;;;;;;;;;5041750;28;20641;-66
2022/02/24 09:29:49;;;;;;;8.07;1.70;;;;;;;;;;5046127;28;20188;-66
2022/02/24 09:32:15;;;;;;;8.57;1.80;;;;;;;;;;5042244;28;20208;-66
2022/02/24 09:34:40;;;;;;;5.18;1.30;;;;;;;;;;5041667;28;20190;-66
2022/02/24 09:37:05;;;;;;;7.63;1.77;;;;;;;;;;5047525;28;20746;-65
2022/02/24 09:39:31;;;;;;;7.65;1.70;;;;;;;;;;5039648;28;20188;-66
2022/02/24 09:41:56;;;;;;;9.30;1.60;;;;;;;;;;5044380;28;20185;-67
2022/02/24 09:44:22;;;;;;;9.13;1.50;;;;;;;;;;5046350;28;20182;-67
2022/02/24 09:46:48;;;;;;;6.97;1.30;;;;;;;;;;5050240;28;20189;-67
2022/02/24 09:49:16;;;;;;;7.10;1.65;;;;;;;;;;5041681;28;20276;-67
2022/02/24 09:51:43;;;;;;;9.25;1.38;;;;;;;;;;5044440;28;20178;-66
2022/02/24 09:54:09;;;;;;;6.22;1.58;;;;;;;;;;5040651;28;20213;-66
2022/02/24 09:56:34;;;;;;;5.45;1.55;;;;;;;;;;5048920;28;20220;-66
2022/02/24 09:59:05;;;;;;;5.90;1.45;;;;;;;;;;5041548;28;20244;-67
2022/02/24 10:01:33;;;;;;;6.25;1.27;;;;;;;;;;5053829;28;20208;-66
2022/02/24 10:04:00;;;;;;;7.13;1.35;;;;;;;;;;5041226;28;20225;-67
2022/02/24 10:06:52;;;;;;;3.42;1.35;;;;;;;;;;5049498;28;20641;-66
2022/02/24 10:09:33;;;;;;;7.43;2.10;;;;;;;;;;5038759;28;20207;-66
2022/02/24 10:12:09;;;;;;;10.07;1.98;;;;;;;;;;5034386;28;20820;-67
2022/02/24 10:14:36;;;;;;;11.35;1.85;;;;;;;;;;5038784;28;20185;-66
2022/02/24 10:17:06;;;;;;;7.65;1.60;;;;;;;;;;5038382;28;20192;-66
2022/02/24 10:19:45;;;;;;;9.02;1.80;;;;;;;;;;5039725;28;20227;-67
2022/02/24 10:22:19;;;;;;;9.13;1.70;;;;;;;;;;5043212;28;20400;-67
2022/02/24 10:24:55;;;;;;;9.35;1.92;;;;;;;;;;5050698;28;20193;-67
2022/02/24 10:27:22;;;;;;;10.52;1.83;;;;;;;;;;5045226;28;20199;-67
2022/02/24 10:30:09;;;;;;;10.30;1.63;;;;;;;;;;5048975;28;20555;-67
2022/02/24 10:32:45;;;;;;;8.30;2.03;;;;;;;;;;5056903;28;20288;-67
2022/02/24 10:35:25;;;;;;;6.25;1.25;;;;;;;;;;5050551;28;20269;-66
2022/02/24 10:37:59;;;;;;;6.18;1.40;;;;;;;;;;5063058;28;20189;-65
2022/02/24 10:40:27;;;;;;;7.88;1.27;;;;;;;;;;5053046;28;20193;-66
2022/02/24 10:42:53;;;;;;;7.78;1.30;;;;;;;;;;5054733;28;20215;-66
2022/02/24 10:45:23;;;;;;;3.50;1.23;;;;;;;;;;5054556;28;20173;-66
2022/02/24 10:48:00;;;;;;;6.10;1.00;;;;;;;;;;5054372;28;20194;-67
2022/02/24 10:51:05;;;;;;;11.95;1.83;;;;;;;;;;5060165;28;20215;-66
2022/02/24 10:53:35;;;;;;;5.32;1.40;;;;;;;;;;5048896;28;20664;-66
2022/02/24 10:56:11;;;;;;;8.90;1.58;;;;;;;;;;5050447;28;20830;-66
2022/02/24 10:58:48;;;;;;;7.78;1.52;;;;;;;;;;5054779;28;20205;-67
2022/02/24 11:01:18;;;;;;;6.13;1.30;;;;;;;;;;5057209;28;20705;-67
2022/02/24 11:03:52;;;;;;;4.82;1.40;;;;;;;;;;5049708;28;20216;-67
2022/02/24 11:06:20;;;;;;;6.43;1.20;;;;;;;;;;5047139;28;20223;-67
2022/02/24 11:08:47;;;;;;;4.60;1.15;;;;;;;;;;5055772;28;20190;-67
2022/02/24 11:11:20;;;;;;;6.30;2.03;;;;;;;;;;5049393;28;20196;-67
2022/02/24 11:13:45;;;;;;;5.75;1.50;;;;;;;;;;5056964;28;20721;-67
2022/02/24 11:16:11;;;;;;;7.07;1.40;;;;;;;;;;5050156;28;20221;-65
2022/02/24 11:18:39;;;;;;;5.78;1.65;;;;;;;;;;5055320;28;20716;-66
2022/02/24 11:21:06;;;;;;;6.95;1.50;;;;;;;;;;5047346;28;20283;-66
2022/02/24 11:23:33;;;;;;;7.97;1.67;;;;;;;;;;5045700;28;20197;-66
2022/02/24 11:26:13;;;;;;;8.90;1.30;;;;;;;;;;5049119;28;20189;-66
2022/02/24 11:28:53;;;;;;;5.80;1.10;;;;;;;;;;5044089;28;20200;-66
2022/02/24 11:31:30;;;;;;;8.38;1.23;;;;;;;;;;5050861;28;20216;-67
2022/02/24 11:33:55;;;;;;;6.18;1.60;;;;;;;;;;5048355;28;20227;-66
2022/02/24 11:36:22;;;;;;;3.92;1.10;;;;;;;;;;5047770;28;20290;-67
2022/02/24 11:39:12;;;;;;;6.38;1.52;;;;;;;;;;5046988;28;20195;-66
2022/02/24 11:41:49;;;;;;;9.15;1.50;;;;;;;;;;5047215;28;20221;-66
2022/02/24 11:44:29;;;;;;;5.38;1.00;;;;;;;;;;5046608;28;20841;-66
2022/02/24 11:47:11;;;;;;;7.75;1.33;;;;;;;;;;5031653;28;20189;-66
2022/02/24 11:49:55;;;;;;;6.80;1.77;;;;;;;;;;5044005;28;20656;-65
2022/02/24 11:52:29;;;;;;;6.15;1.33;;;;;;;;;;5043752;28;20282;-66
2022/02/24 11:54:57;;;;;;;4.63;1.42;;;;;;;;;;5046293;28;20697;-66
2022/02/24 11:57:36;;;;;;;6.80;1.27;;;;;;;;;;5050118;28;20193;-65
2022/02/24 12:00:18;;;;;;;8.63;1.40;;;;;;;;;;5053229;28;20189;-66
2022/02/24 12:02:48;;;;;;;7.10;1.50;;;;;;;;;;5044702;28;20205;-67
2022/02/24 12:05:22;;;;;;;5.70;1.17;;;;;;;;;;5050896;28;20286;-65
2022/02/24 12:08:03;;;;;;;6.85;1.55;;;;;;;;;;5044431;28;20650;-66
2022/02/24 12:10:43;;;;;;;5.63;1.50;;;;;;;;;;5051930;28;20201;-66
2022/02/24 12:13:27;;;;;;;10.00;1.33;;;;;;;;;;5050617;28;20289;-65
2022/02/24 12:16:22;;;;;;;8.90;1.30;;;;;;;;;;5046912;28;20571;-67
2022/02/24 12:18:49;;;;;;;4.15;1.15;;;;;;;;;;5056210;28;20648;-66
2022/02/24 12:21:36;;;;;;;4.35;1.60;;;;;;;;;;5044622;28;20192;-66
2022/02/24 12:24:02;;;;;;;6.97;2.10;;;;;;;;;;5047613;28;20185;-66
2022/02/24 12:26:46;;;;;;;4.85;1.38;;;;;;;;;;5046660;28;20604;-66
2022/02/24 12:29:17;;;;;;;3.90;1.30;;;;;;;;;;5044924;28;20189;-66
2022/02/24 12:31:44;;;;;;;6.55;1.50;;;;;;;;;;5044978;28;20202;-66
2022/02/24 12:34:09;;;;;;;6.72;1.17;;;;;;;;;;5044205;28;20214;-66
2022/02/24 12:36:35;;;;;;;6.13;0.90;;;;;;;;;;5044971;28;20190;-67
2022/02/24 12:39:04;;;;;;;5.90;1.00;;;;;;;;;;5044605;28;20185;-67
2022/02/24 12:41:29;;;;;;;5.15;0.98;;;;;;;;;;5039773;28;20189;-66
2022/02/24 12:43:54;;;;;;;6.03;1.05;;;;;;;;;;5043406;28;20667;-66
2022/02/24 12:46:20;;;;;;;5.93;1.13;;;;;;;;;;5056448;28;20185;-66
2022/02/24 12:48:45;;;;;;;5.03;1.13;;;;;;;;;;5041729;28;20192;-67
2022/02/24 12:51:11;;;;;;;8.90;1.23;;;;;;;;;;5050785;28;20433;-66
2022/02/24 12:53:37;;;;;;;3.22;0.85;;;;;;;;;;5042758;28;20209;-66
2022/02/24 12:56:03;;;;;;;5.95;1.02;;;;;;;;;;5048046;28;20189;-66
2022/02/24 12:58:28;;;;;;;5.22;1.27;;;;;;;;;;5043772;28;20212;-66
2022/02/24 13:00:56;;;;;;;5.20;0.98;;;;;;;;;;5045692;28;20197;-66
2022/02/24 13:03:28;;;;;;;6.78;0.98;;;;;;;;;;5047566;28;20220;-66
2022/02/24 13:06:01;;;;;;;3.75;1.05;;;;;;;;;;5050216;28;20198;-66
2022/02/24 13:11:20;;;;;;;5.80;0.80;;;;;;;;;;5047489;28;20246;-66
2022/02/24 13:13:46;;;;;;;4.28;1.25;;;;;;;;;;5049288;28;20229;-66
2022/02/24 13:16:16;;;;;;;4.25;0.80;;;;;;;;;;5043425;28;20244;-67
2022/02/24 13:18:48;;;;;;;4.70;0.70;;;;;;;;;;5046508;28;20189;-67
2022/02/24 13:21:16;;;;;;;3.67;0.95;;;;;;;;;;5047256;28;20573;-67
2022/02/24 13:23:44;;;;;;;3.78;0.90;;;;;;;;;;5052523;28;20272;-66
2022/02/24 13:26:10;;;;;;;3.88;0.75;;;;;;;;;;5043157;28;20197;-68
2022/02/24 13:28:37;;;;;;;4.07;0.80;;;;;;;;;;5039434;28;20193;-67
2022/02/24 13:31:07;;;;;;;3.90;0.70;;;;;;;;;;5044275;28;20193;-66
2022/02/24 13:33:38;;;;;;;3.17;0.80;;;;;;;;;;5042556;28;20209;-67
2022/02/24 13:36:05;;;;;;;2.72;0.98;;;;;;;;;;5045099;28;20181;-67
2022/02/24 13:38:39;;;;;;;3.42;0.80;;;;;;;;;;5041875;28;20229;-66
2022/02/24 13:41:07;;;;;;;2.47;0.88;;;;;;;;;;5049628;28;20214;-66
2022/02/24 13:43:37;;;;;;;5.40;1.00;;;;;;;;;;5047036;28;20181;-66
2022/02/24 13:46:03;;;;;;;7.38;1.00;;;;;;;;;;5049530;28;20177;-69
2022/02/24 13:48:36;;;;;;;8.07;1.17;;;;;;;;;;5043220;28;20206;-66
2022/02/24 13:51:02;;;;;;;3.10;0.93;;;;;;;;;;5058242;28;20584;-66
2022/02/24 13:53:30;;;;;;;5.07;0.82;;;;;;;;;;5043811;28;20501;-65
2022/02/24 13:55:55;;;;;;;3.05;0.90;;;;;;;;;;5051645;28;20235;-66
2022/02/24 13:58:25;;;;;;;6.68;1.00;;;;;;;;;;5048384;28;20184;-67
2022/02/24 14:00:56;;;;;;;6.97;0.82;;;;;;;;;;5053767;28;20177;-67
2022/02/24 14:03:33;;;;;;;4.28;0.80;;;;;;;;;;5044320;28;20632;-66
2022/02/24 14:06:16;;;;;;;8.52;1.10;;;;;;;;;;5043789;28;20189;-66
2022/02/24 14:08:45;;;;;;;4.03;0.65;;;;;;;;;;5066264;28;20275;-66
2022/02/24 14:11:32;;;;;;;2.88;0.82;;;;;;;;;;5045019;28;20375;-67
2022/02/24 14:13:59;;;;;;;2.67;0.65;;;;;;;;;;5055782;28;20732;-66
2022/02/24 14:16:26;;;;;;;6.65;0.90;;;;;;;;;;5027650;28;20190;-67
2022/02/24 14:18:52;;;;;;;2.90;0.65;;;;;;;;;;5048462;28;20702;-68
2022/02/24 14:21:19;;;;;;;2.97;0.70;;;;;;;;;;5043052;28;20481;-66
2022/02/24 14:23:45;;;;;;;4.87;0.97;;;;;;;;;;5050993;28;20183;-66
2022/02/24 14:26:11;;;;;;;5.20;1.30;;;;;;;;;;5042740;28;20196;-66
2022/02/24 14:28:38;;;;;;;3.57;0.80;;;;;;;;;;5042233;28;20185;-67
2022/02/24 14:31:05;;;;;;;3.75;0.80;;;;;;;;;;5047099;28;20197;-66
2022/02/24 14:33:30;;;;;;;3.60;1.13;;;;;;;;;;5048004;28;20231;-67
2022/02/24 14:35:56;;;;;;;3.35;1.02;;;;;;;;;;5046063;28;20290;-69
2022/02/24 14:38:21;;;;;;;1.53;0.40;;;;;;;;;;5041583;28;20557;-70
2022/02/24 14:40:47;;;;;;;2.17;0.60;;;;;;;;;;5039875;28;20254;-72
2022/02/24 14:43:14;;;;;;;2.10;0.67;;;;;;;;;;5038822;28;20193;-71